sensor_id;sensor_type;location;lat;lon;timestamp;P1;durP1;ratioP1;P2;durP2;ratioP2
24715;SDS011;12822;50.124;8.678;2023-02-17T00:01:57;51.75;;;28.42;;
24715;SDS011;12822;50.124;8.678;2023-02-17T00:04:23;49.85;;;28.45;;
24715;SDS011;12822;50.124;8.678;2023-02-17T00:06:49;46.85;;;25.08;;
24715;SDS011;12822;50.124;8.678;2023-02-17T00:09:15;44.53;;;25.20;;
24715;SDS011;12822;50.124;8.678;2023-02-17T00:11:41;50.45;;;26.83;;
24715;SDS011;12822;50.124;8.678;2023-02-17T00:14:08;44.78;;;25.38;;
24715;SDS011;12822;50.124;8.678;2023-02-17T00:16:36;44.38;;;25.13;;
24715;SDS011;12822;50.124;8.678;2023-02-17T00:19:02;45.25;;;25.33;;
24715;SDS011;12822;50.124;8.678;2023-02-17T00:21:47;43.80;;;25.33;;
24715;SDS011;12822;50.124;8.678;2023-02-17T00:24:13;46.28;;;25.58;;
24715;SDS011;12822;50.124;8.678;2023-02-17T00:26:39;44.53;;;25.52;;
24715;SDS011;12822;50.124;8.678;2023-02-17T00:29:05;44.17;;;24.75;;
24715;SDS011;12822;50.124;8.678;2023-02-17T00:31:31;40.13;;;25.10;;
24715;SDS011;12822;50.124;8.678;2023-02-17T00:33:57;44.65;;;25.48;;
24715;SDS011;12822;50.124;8.678;2023-02-17T00:36:24;50.47;;;26.08;;
24715;SDS011;12822;50.124;8.678;2023-02-17T00:38:51;43.25;;;24.52;;
24715;SDS011;12822;50.124;8.678;2023-02-17T00:41:18;39.63;;;23.83;;
24715;SDS011;12822;50.124;8.678;2023-02-17T00:43:44;39.70;;;24.33;;
24715;SDS011;12822;50.124;8.678;2023-02-17T00:46:10;44.50;;;25.00;;
24715;SDS011;12822;50.124;8.678;2023-02-17T00:48:36;44.05;;;23.92;;
24715;SDS011;12822;50.124;8.678;2023-02-17T00:51:03;42.67;;;25.23;;
24715;SDS011;12822;50.124;8.678;2023-02-17T00:53:29;41.35;;;24.48;;
24715;SDS011;12822;50.124;8.678;2023-02-17T00:55:55;43.78;;;24.20;;
24715;SDS011;12822;50.124;8.678;2023-02-17T00:58:21;42.88;;;23.77;;
24715;SDS011;12822;50.124;8.678;2023-02-17T01:00:47;44.30;;;25.88;;
24715;SDS011;12822;50.124;8.678;2023-02-17T01:03:13;43.50;;;25.30;;
24715;SDS011;12822;50.124;8.678;2023-02-17T01:05:43;43.03;;;25.10;;
24715;SDS011;12822;50.124;8.678;2023-02-17T01:08:10;43.78;;;24.42;;
24715;SDS011;12822;50.124;8.678;2023-02-17T01:10:36;43.22;;;24.98;;
24715;SDS011;12822;50.124;8.678;2023-02-17T01:13:02;40.85;;;24.10;;
24715;SDS011;12822;50.124;8.678;2023-02-17T01:15:29;37.45;;;23.92;;
24715;SDS011;12822;50.124;8.678;2023-02-17T01:17:54;43.35;;;24.10;;
24715;SDS011;12822;50.124;8.678;2023-02-17T01:20:20;44.50;;;23.55;;
24715;SDS011;12822;50.124;8.678;2023-02-17T01:22:46;42.13;;;22.92;;
24715;SDS011;12822;50.124;8.678;2023-02-17T01:25:12;41.95;;;24.35;;
24715;SDS011;12822;50.124;8.678;2023-02-17T01:27:38;45.15;;;24.63;;
24715;SDS011;12822;50.124;8.678;2023-02-17T01:30:05;41.70;;;23.08;;
24715;SDS011;12822;50.124;8.678;2023-02-17T01:32:31;39.92;;;23.05;;
24715;SDS011;12822;50.124;8.678;2023-02-17T01:34:57;40.15;;;22.92;;
24715;SDS011;12822;50.124;8.678;2023-02-17T01:37:23;42.47;;;22.10;;
24715;SDS011;12822;50.124;8.678;2023-02-17T01:39:49;44.22;;;23.23;;
24715;SDS011;12822;50.124;8.678;2023-02-17T01:42:15;37.08;;;22.45;;
24715;SDS011;12822;50.124;8.678;2023-02-17T01:47:27;37.38;;;20.42;;
24715;SDS011;12822;50.124;8.678;2023-02-17T01:49:53;32.22;;;19.25;;
24715;SDS011;12822;50.124;8.678;2023-02-17T01:52:20;33.22;;;20.02;;
24715;SDS011;12822;50.124;8.678;2023-02-17T01:57:17;36.03;;;20.30;;
24715;SDS011;12822;50.124;8.678;2023-02-17T01:59:44;33.78;;;20.23;;
24715;SDS011;12822;50.124;8.678;2023-02-17T02:02:11;35.72;;;20.00;;
24715;SDS011;12822;50.124;8.678;2023-02-17T02:04:38;36.47;;;19.23;;
24715;SDS011;12822;50.124;8.678;2023-02-17T02:07:08;36.50;;;17.92;;
24715;SDS011;12822;50.124;8.678;2023-02-17T02:09:39;32.60;;;18.83;;
24715;SDS011;12822;50.124;8.678;2023-02-17T02:12:18;34.15;;;18.25;;
24715;SDS011;12822;50.124;8.678;2023-02-17T02:14:44;35.40;;;18.52;;
24715;SDS011;12822;50.124;8.678;2023-02-17T02:17:16;33.80;;;17.80;;
24715;SDS011;12822;50.124;8.678;2023-02-17T02:22:43;32.92;;;17.00;;
24715;SDS011;12822;50.124;8.678;2023-02-17T02:30:42;30.60;;;16.00;;
24715;SDS011;12822;50.124;8.678;2023-02-17T02:33:12;26.73;;;15.55;;
24715;SDS011;12822;50.124;8.678;2023-02-17T02:40:39;27.98;;;15.65;;
24715;SDS011;12822;50.124;8.678;2023-02-17T02:43:06;30.40;;;14.25;;
24715;SDS011;12822;50.124;8.678;2023-02-17T02:45:32;24.63;;;13.98;;
24715;SDS011;12822;50.124;8.678;2023-02-17T02:47:59;25.15;;;14.27;;
24715;SDS011;12822;50.124;8.678;2023-02-17T02:55:49;28.50;;;15.27;;
24715;SDS011;12822;50.124;8.678;2023-02-17T03:00:45;27.08;;;14.38;;
24715;SDS011;12822;50.124;8.678;2023-02-17T03:08:33;22.77;;;14.40;;
24715;SDS011;12822;50.124;8.678;2023-02-17T03:10:59;25.90;;;14.25;;
24715;SDS011;12822;50.124;8.678;2023-02-17T03:13:26;22.52;;;13.57;;
24715;SDS011;12822;50.124;8.678;2023-02-17T03:15:52;26.05;;;14.15;;
24715;SDS011;12822;50.124;8.678;2023-02-17T03:18:18;21.13;;;13.13;;
24715;SDS011;12822;50.124;8.678;2023-02-17T03:20:54;20.70;;;12.60;;
24715;SDS011;12822;50.124;8.678;2023-02-17T03:23:21;25.15;;;12.50;;
24715;SDS011;12822;50.124;8.678;2023-02-17T03:25:48;23.83;;;13.45;;
24715;SDS011;12822;50.124;8.678;2023-02-17T03:28:14;25.45;;;13.48;;
24715;SDS011;12822;50.124;8.678;2023-02-17T03:30:40;23.65;;;12.30;;
24715;SDS011;12822;50.124;8.678;2023-02-17T03:33:06;24.70;;;12.23;;
24715;SDS011;12822;50.124;8.678;2023-02-17T03:35:32;25.65;;;12.10;;
24715;SDS011;12822;50.124;8.678;2023-02-17T03:37:58;20.58;;;12.15;;
24715;SDS011;12822;50.124;8.678;2023-02-17T03:40:24;20.60;;;11.88;;
24715;SDS011;12822;50.124;8.678;2023-02-17T03:42:50;20.55;;;11.93;;
24715;SDS011;12822;50.124;8.678;2023-02-17T03:45:16;20.02;;;12.20;;
24715;SDS011;12822;50.124;8.678;2023-02-17T03:47:42;21.00;;;11.13;;
24715;SDS011;12822;50.124;8.678;2023-02-17T03:50:11;19.65;;;11.25;;
24715;SDS011;12822;50.124;8.678;2023-02-17T03:52:37;28.40;;;11.55;;
24715;SDS011;12822;50.124;8.678;2023-02-17T03:55:03;18.65;;;11.00;;
24715;SDS011;12822;50.124;8.678;2023-02-17T03:57:29;26.38;;;11.40;;
24715;SDS011;12822;50.124;8.678;2023-02-17T03:59:56;19.17;;;10.73;;
24715;SDS011;12822;50.124;8.678;2023-02-17T04:02:22;17.58;;;11.10;;
24715;SDS011;12822;50.124;8.678;2023-02-17T04:04:48;18.90;;;10.60;;
24715;SDS011;12822;50.124;8.678;2023-02-17T04:07:14;18.20;;;10.20;;
24715;SDS011;12822;50.124;8.678;2023-02-17T04:09:40;23.42;;;10.35;;
24715;SDS011;12822;50.124;8.678;2023-02-17T04:12:06;15.77;;;9.80;;
24715;SDS011;12822;50.124;8.678;2023-02-17T04:14:32;16.08;;;10.00;;
24715;SDS011;12822;50.124;8.678;2023-02-17T04:16:58;19.38;;;9.75;;
24715;SDS011;12822;50.124;8.678;2023-02-17T04:19:24;17.65;;;9.38;;
24715;SDS011;12822;50.124;8.678;2023-02-17T04:21:50;17.92;;;10.35;;
24715;SDS011;12822;50.124;8.678;2023-02-17T04:24:16;14.77;;;9.23;;
24715;SDS011;12822;50.124;8.678;2023-02-17T04:26:42;19.33;;;10.13;;
24715;SDS011;12822;50.124;8.678;2023-02-17T04:29:08;17.65;;;8.63;;
24715;SDS011;12822;50.124;8.678;2023-02-17T04:31:34;15.52;;;8.77;;
24715;SDS011;12822;50.124;8.678;2023-02-17T04:34:00;16.38;;;10.07;;
24715;SDS011;12822;50.124;8.678;2023-02-17T04:36:26;15.77;;;10.02;;
24715;SDS011;12822;50.124;8.678;2023-02-17T04:38:55;15.95;;;10.45;;
24715;SDS011;12822;50.124;8.678;2023-02-17T04:41:21;16.35;;;10.10;;
24715;SDS011;12822;50.124;8.678;2023-02-17T04:43:47;14.07;;;9.13;;
24715;SDS011;12822;50.124;8.678;2023-02-17T04:46:13;20.08;;;9.50;;
24715;SDS011;12822;50.124;8.678;2023-02-17T04:48:39;17.30;;;10.50;;
24715;SDS011;12822;50.124;8.678;2023-02-17T04:51:05;20.38;;;9.60;;
24715;SDS011;12822;50.124;8.678;2023-02-17T04:53:31;20.35;;;10.45;;
24715;SDS011;12822;50.124;8.678;2023-02-17T04:55:57;16.25;;;10.10;;
24715;SDS011;12822;50.124;8.678;2023-02-17T04:58:23;17.42;;;9.73;;
24715;SDS011;12822;50.124;8.678;2023-02-17T05:00:50;16.42;;;9.32;;
24715;SDS011;12822;50.124;8.678;2023-02-17T05:03:19;14.48;;;9.65;;
24715;SDS011;12822;50.124;8.678;2023-02-17T05:05:45;18.17;;;9.48;;
24715;SDS011;12822;50.124;8.678;2023-02-17T05:08:11;17.38;;;8.80;;
24715;SDS011;12822;50.124;8.678;2023-02-17T05:10:37;17.73;;;9.88;;
24715;SDS011;12822;50.124;8.678;2023-02-17T05:13:03;23.73;;;10.45;;
24715;SDS011;12822;50.124;8.678;2023-02-17T05:15:29;23.15;;;9.13;;
24715;SDS011;12822;50.124;8.678;2023-02-17T05:17:55;18.08;;;9.55;;
24715;SDS011;12822;50.124;8.678;2023-02-17T05:20:21;16.25;;;9.07;;
24715;SDS011;12822;50.124;8.678;2023-02-17T05:22:47;15.38;;;8.88;;
24715;SDS011;12822;50.124;8.678;2023-02-17T05:25:13;17.52;;;8.85;;
24715;SDS011;12822;50.124;8.678;2023-02-17T05:27:39;15.27;;;8.43;;
24715;SDS011;12822;50.124;8.678;2023-02-17T05:30:05;13.15;;;8.20;;
24715;SDS011;12822;50.124;8.678;2023-02-17T05:32:31;14.95;;;8.98;;
24715;SDS011;12822;50.124;8.678;2023-02-17T05:34:57;13.40;;;8.63;;
24715;SDS011;12822;50.124;8.678;2023-02-17T05:37:23;15.07;;;8.27;;
24715;SDS011;12822;50.124;8.678;2023-02-17T05:39:49;14.23;;;8.93;;
24715;SDS011;12822;50.124;8.678;2023-02-17T05:42:15;16.20;;;8.65;;
24715;SDS011;12822;50.124;8.678;2023-02-17T05:44:41;14.70;;;8.15;;
24715;SDS011;12822;50.124;8.678;2023-02-17T05:47:07;15.32;;;8.30;;
24715;SDS011;12822;50.124;8.678;2023-02-17T05:49:33;10.75;;;7.50;;
24715;SDS011;12822;50.124;8.678;2023-02-17T05:51:59;17.33;;;7.78;;
24715;SDS011;12822;50.124;8.678;2023-02-17T05:54:25;13.45;;;7.97;;
24715;SDS011;12822;50.124;8.678;2023-02-17T05:56:51;10.98;;;7.32;;
24715;SDS011;12822;50.124;8.678;2023-02-17T05:59:18;10.75;;;6.68;;
24715;SDS011;12822;50.124;8.678;2023-02-17T06:01:44;13.88;;;7.40;;
24715;SDS011;12822;50.124;8.678;2023-02-17T06:04:10;11.85;;;6.95;;
24715;SDS011;12822;50.124;8.678;2023-02-17T06:06:36;12.57;;;6.90;;
24715;SDS011;12822;50.124;8.678;2023-02-17T06:09:02;11.57;;;7.22;;
24715;SDS011;12822;50.124;8.678;2023-02-17T06:11:28;13.45;;;7.60;;
24715;SDS011;12822;50.124;8.678;2023-02-17T06:13:54;10.90;;;6.68;;
24715;SDS011;12822;50.124;8.678;2023-02-17T06:16:20;10.30;;;6.60;;
24715;SDS011;12822;50.124;8.678;2023-02-17T06:18:46;12.10;;;7.38;;
24715;SDS011;12822;50.124;8.678;2023-02-17T06:21:12;12.18;;;6.72;;
24715;SDS011;12822;50.124;8.678;2023-02-17T06:23:38;12.35;;;7.10;;
24715;SDS011;12822;50.124;8.678;2023-02-17T06:26:04;11.73;;;7.13;;
24715;SDS011;12822;50.124;8.678;2023-02-17T06:28:30;10.68;;;6.80;;
24715;SDS011;12822;50.124;8.678;2023-02-17T06:30:56;8.65;;;6.32;;
24715;SDS011;12822;50.124;8.678;2023-02-17T06:33:22;16.52;;;6.60;;
24715;SDS011;12822;50.124;8.678;2023-02-17T06:35:49;12.73;;;6.30;;
24715;SDS011;12822;50.124;8.678;2023-02-17T06:38:15;11.55;;;6.90;;
24715;SDS011;12822;50.124;8.678;2023-02-17T06:40:41;12.50;;;6.85;;
24715;SDS011;12822;50.124;8.678;2023-02-17T06:43:08;9.50;;;6.18;;
24715;SDS011;12822;50.124;8.678;2023-02-17T06:45:34;9.00;;;5.93;;
24715;SDS011;12822;50.124;8.678;2023-02-17T06:48:00;9.68;;;6.18;;
24715;SDS011;12822;50.124;8.678;2023-02-17T06:50:26;9.27;;;6.38;;
24715;SDS011;12822;50.124;8.678;2023-02-17T06:52:52;14.85;;;6.53;;
24715;SDS011;12822;50.124;8.678;2023-02-17T06:55:18;11.57;;;6.22;;
24715;SDS011;12822;50.124;8.678;2023-02-17T06:57:44;10.02;;;6.32;;
24715;SDS011;12822;50.124;8.678;2023-02-17T07:00:10;8.40;;;5.72;;
24715;SDS011;12822;50.124;8.678;2023-02-17T07:02:37;12.57;;;5.60;;
24715;SDS011;12822;50.124;8.678;2023-02-17T07:05:03;17.20;;;6.88;;
24715;SDS011;12822;50.124;8.678;2023-02-17T07:07:29;14.57;;;6.00;;
24715;SDS011;12822;50.124;8.678;2023-02-17T07:09:55;11.35;;;6.13;;
24715;SDS011;12822;50.124;8.678;2023-02-17T07:12:21;10.75;;;6.30;;
24715;SDS011;12822;50.124;8.678;2023-02-17T07:14:47;16.00;;;5.75;;
24715;SDS011;12822;50.124;8.678;2023-02-17T07:17:13;17.13;;;6.60;;
24715;SDS011;12822;50.124;8.678;2023-02-17T07:19:39;15.30;;;5.85;;
24715;SDS011;12822;50.124;8.678;2023-02-17T07:22:05;10.77;;;5.53;;
24715;SDS011;12822;50.124;8.678;2023-02-17T07:24:31;8.65;;;5.93;;
24715;SDS011;12822;50.124;8.678;2023-02-17T07:26:58;11.90;;;5.30;;
24715;SDS011;12822;50.124;8.678;2023-02-17T07:29:24;8.18;;;5.70;;
24715;SDS011;12822;50.124;8.678;2023-02-17T07:31:53;7.93;;;5.93;;
24715;SDS011;12822;50.124;8.678;2023-02-17T07:34:19;12.75;;;5.82;;
24715;SDS011;12822;50.124;8.678;2023-02-17T07:36:46;9.63;;;6.60;;
24715;SDS011;12822;50.124;8.678;2023-02-17T07:39:12;8.85;;;6.70;;
24715;SDS011;12822;50.124;8.678;2023-02-17T07:41:38;11.65;;;5.90;;
24715;SDS011;12822;50.124;8.678;2023-02-17T07:44:04;8.52;;;6.28;;
24715;SDS011;12822;50.124;8.678;2023-02-17T07:46:30;12.32;;;6.05;;
24715;SDS011;12822;50.124;8.678;2023-02-17T07:48:56;11.85;;;6.75;;
24715;SDS011;12822;50.124;8.678;2023-02-17T07:51:23;7.97;;;5.60;;
24715;SDS011;12822;50.124;8.678;2023-02-17T07:53:49;8.50;;;5.78;;
24715;SDS011;12822;50.124;8.678;2023-02-17T07:56:16;8.77;;;6.13;;
24715;SDS011;12822;50.124;8.678;2023-02-17T07:58:43;9.43;;;6.55;;
24715;SDS011;12822;50.124;8.678;2023-02-17T08:01:10;9.95;;;5.70;;
24715;SDS011;12822;50.124;8.678;2023-02-17T08:03:37;11.98;;;6.07;;
24715;SDS011;12822;50.124;8.678;2023-02-17T08:06:03;10.52;;;6.32;;
24715;SDS011;12822;50.124;8.678;2023-02-17T08:08:29;9.70;;;5.90;;
24715;SDS011;12822;50.124;8.678;2023-02-17T08:11:15;9.27;;;6.25;;
24715;SDS011;12822;50.124;8.678;2023-02-17T08:14:00;15.57;;;5.78;;
24715;SDS011;12822;50.124;8.678;2023-02-17T08:16:26;9.88;;;6.28;;
24715;SDS011;12822;50.124;8.678;2023-02-17T08:18:55;8.02;;;5.28;;
24715;SDS011;12822;50.124;8.678;2023-02-17T08:21:22;6.63;;;5.32;;
24715;SDS011;12822;50.124;8.678;2023-02-17T08:23:48;6.63;;;5.03;;
24715;SDS011;12822;50.124;8.678;2023-02-17T08:26:14;6.15;;;5.22;;
24715;SDS011;12822;50.124;8.678;2023-02-17T08:28:41;10.00;;;5.00;;
24715;SDS011;12822;50.124;8.678;2023-02-17T08:31:14;9.63;;;5.38;;
24715;SDS011;12822;50.124;8.678;2023-02-17T08:33:40;7.40;;;4.15;;
24715;SDS011;12822;50.124;8.678;2023-02-17T08:36:06;9.48;;;6.05;;
24715;SDS011;12822;50.124;8.678;2023-02-17T08:38:32;10.73;;;5.20;;
24715;SDS011;12822;50.124;8.678;2023-02-17T08:40:58;7.75;;;4.40;;
24715;SDS011;12822;50.124;8.678;2023-02-17T08:43:24;8.20;;;5.28;;
24715;SDS011;12822;50.124;8.678;2023-02-17T08:45:50;7.68;;;5.38;;
24715;SDS011;12822;50.124;8.678;2023-02-17T08:48:16;6.90;;;4.75;;
24715;SDS011;12822;50.124;8.678;2023-02-17T08:50:45;7.55;;;4.90;;
24715;SDS011;12822;50.124;8.678;2023-02-17T08:53:11;7.20;;;4.90;;
24715;SDS011;12822;50.124;8.678;2023-02-17T08:55:38;6.88;;;4.85;;
24715;SDS011;12822;50.124;8.678;2023-02-17T08:58:04;7.55;;;5.60;;
24715;SDS011;12822;50.124;8.678;2023-02-17T09:00:30;6.72;;;4.78;;
24715;SDS011;12822;50.124;8.678;2023-02-17T09:02:56;6.53;;;5.05;;
24715;SDS011;12822;50.124;8.678;2023-02-17T09:05:22;5.85;;;4.68;;
24715;SDS011;12822;50.124;8.678;2023-02-17T09:07:48;10.10;;;4.85;;
24715;SDS011;12822;50.124;8.678;2023-02-17T09:10:14;7.60;;;4.38;;
24715;SDS011;12822;50.124;8.678;2023-02-17T09:12:40;5.57;;;4.10;;
24715;SDS011;12822;50.124;8.678;2023-02-17T09:15:06;8.35;;;4.70;;
24715;SDS011;12822;50.124;8.678;2023-02-17T09:17:33;7.00;;;4.53;;
24715;SDS011;12822;50.124;8.678;2023-02-17T09:20:03;7.90;;;5.90;;
24715;SDS011;12822;50.124;8.678;2023-02-17T09:22:30;8.55;;;5.15;;
24715;SDS011;12822;50.124;8.678;2023-02-17T09:24:56;6.70;;;5.30;;
24715;SDS011;12822;50.124;8.678;2023-02-17T09:27:22;7.15;;;5.15;;
24715;SDS011;12822;50.124;8.678;2023-02-17T09:29:48;8.93;;;5.65;;
24715;SDS011;12822;50.124;8.678;2023-02-17T09:32:17;7.95;;;5.20;;
24715;SDS011;12822;50.124;8.678;2023-02-17T09:34:43;11.20;;;5.90;;
24715;SDS011;12822;50.124;8.678;2023-02-17T09:37:15;11.10;;;5.95;;
24715;SDS011;12822;50.124;8.678;2023-02-17T09:39:42;8.43;;;5.50;;
24715;SDS011;12822;50.124;8.678;2023-02-17T09:42:18;8.32;;;5.43;;
24715;SDS011;12822;50.124;8.678;2023-02-17T09:44:47;9.95;;;6.38;;
24715;SDS011;12822;50.124;8.678;2023-02-17T09:47:17;9.18;;;5.95;;
24715;SDS011;12822;50.124;8.678;2023-02-17T09:49:50;11.57;;;5.78;;
24715;SDS011;12822;50.124;8.678;2023-02-17T09:54:52;12.32;;;6.32;;
24715;SDS011;12822;50.124;8.678;2023-02-17T09:57:24;11.95;;;6.13;;
24715;SDS011;12822;50.124;8.678;2023-02-17T09:59:53;14.15;;;7.18;;
24715;SDS011;12822;50.124;8.678;2023-02-17T10:02:27;18.55;;;6.63;;
24715;SDS011;12822;50.124;8.678;2023-02-17T10:04:56;15.80;;;6.30;;
24715;SDS011;12822;50.124;8.678;2023-02-17T10:07:35;13.70;;;6.97;;
24715;SDS011;12822;50.124;8.678;2023-02-17T10:10:06;10.00;;;6.80;;
24715;SDS011;12822;50.124;8.678;2023-02-17T10:12:33;16.75;;;7.43;;
24715;SDS011;12822;50.124;8.678;2023-02-17T10:15:04;12.25;;;7.00;;
24715;SDS011;12822;50.124;8.678;2023-02-17T10:17:37;15.02;;;7.55;;
24715;SDS011;12822;50.124;8.678;2023-02-17T10:22:34;11.32;;;7.63;;
24715;SDS011;12822;50.124;8.678;2023-02-17T10:25:01;19.00;;;8.10;;
24715;SDS011;12822;50.124;8.678;2023-02-17T10:27:40;12.30;;;7.88;;
24715;SDS011;12822;50.124;8.678;2023-02-17T10:32:52;13.30;;;6.75;;
24715;SDS011;12822;50.124;8.678;2023-02-17T10:35:37;15.23;;;8.20;;
24715;SDS011;12822;50.124;8.678;2023-02-17T10:40:42;9.23;;;6.57;;
24715;SDS011;12822;50.124;8.678;2023-02-17T10:43:18;10.65;;;6.85;;
24715;SDS011;12822;50.124;8.678;2023-02-17T10:45:46;9.50;;;6.55;;
24715;SDS011;12822;50.124;8.678;2023-02-17T10:48:17;10.75;;;7.00;;
24715;SDS011;12822;50.124;8.678;2023-02-17T10:50:45;10.10;;;6.60;;
24715;SDS011;12822;50.124;8.678;2023-02-17T11:00:46;9.52;;;6.90;;
24715;SDS011;12822;50.124;8.678;2023-02-17T11:03:18;10.40;;;7.30;;
24715;SDS011;12822;50.124;8.678;2023-02-17T11:05:50;9.50;;;6.87;;
24715;SDS011;12822;50.124;8.678;2023-02-17T11:08:23;10.35;;;6.63;;
24715;SDS011;12822;50.124;8.678;2023-02-17T11:10:57;11.75;;;7.07;;
24715;SDS011;12822;50.124;8.678;2023-02-17T11:15:56;10.60;;;7.57;;
24715;SDS011;12822;50.124;8.678;2023-02-17T11:18:32;12.02;;;7.05;;
24715;SDS011;12822;50.124;8.678;2023-02-17T11:21:00;10.00;;;6.80;;
24715;SDS011;12822;50.124;8.678;2023-02-17T11:23:26;10.95;;;7.30;;
24715;SDS011;12822;50.124;8.678;2023-02-17T11:26:26;10.07;;;6.72;;
24715;SDS011;12822;50.124;8.678;2023-02-17T11:28:45;9.38;;;6.25;;
24715;SDS011;12822;50.124;8.678;2023-02-17T11:31:21;8.55;;;6.20;;
24715;SDS011;12822;50.124;8.678;2023-02-17T11:33:48;8.88;;;6.35;;
24715;SDS011;12822;50.124;8.678;2023-02-17T11:38:52;10.70;;;6.43;;
24715;SDS011;12822;50.124;8.678;2023-02-17T11:41:19;8.02;;;5.50;;
24715;SDS011;12822;50.124;8.678;2023-02-17T11:46:22;7.47;;;5.43;;
24715;SDS011;12822;50.124;8.678;2023-02-17T11:56:34;9.25;;;4.93;;
24715;SDS011;12822;50.124;8.678;2023-02-17T12:12:12;6.43;;;4.55;;
24715;SDS011;12822;50.124;8.678;2023-02-17T12:14:44;7.65;;;4.72;;
24715;SDS011;12822;50.124;8.678;2023-02-17T12:20:06;4.95;;;3.42;;
24715;SDS011;12822;50.124;8.678;2023-02-17T12:25:24;3.35;;;2.67;;
24715;SDS011;12822;50.124;8.678;2023-02-17T12:33:24;6.10;;;2.58;;
24715;SDS011;12822;50.124;8.678;2023-02-17T12:35:52;4.03;;;2.42;;
24715;SDS011;12822;50.124;8.678;2023-02-17T12:38:26;3.85;;;2.53;;
24715;SDS011;12822;50.124;8.678;2023-02-17T12:43:25;4.00;;;2.75;;
24715;SDS011;12822;50.124;8.678;2023-02-17T12:45:53;3.17;;;2.47;;
24715;SDS011;12822;50.124;8.678;2023-02-17T12:48:23;4.13;;;2.38;;
24715;SDS011;12822;50.124;8.678;2023-02-17T12:58:55;3.45;;;2.47;;
24715;SDS011;12822;50.124;8.678;2023-02-17T13:01:24;3.33;;;2.42;;
24715;SDS011;12822;50.124;8.678;2023-02-17T13:03:51;2.47;;;2.15;;
24715;SDS011;12822;50.124;8.678;2023-02-17T13:06:28;2.45;;;2.13;;
24715;SDS011;12822;50.124;8.678;2023-02-17T13:09:19;4.82;;;1.80;;
24715;SDS011;12822;50.124;8.678;2023-02-17T13:11:41;3.85;;;1.88;;
24715;SDS011;12822;50.124;8.678;2023-02-17T13:14:36;2.75;;;2.00;;
24715;SDS011;12822;50.124;8.678;2023-02-17T13:17:03;2.35;;;1.80;;
24715;SDS011;12822;50.124;8.678;2023-02-17T13:19:29;2.85;;;1.88;;
24715;SDS011;12822;50.124;8.678;2023-02-17T13:21:56;2.42;;;1.27;;
24715;SDS011;12822;50.124;8.678;2023-02-17T13:24:50;3.72;;;1.77;;
24715;SDS011;12822;50.124;8.678;2023-02-17T13:27:21;1.65;;;1.15;;
24715;SDS011;12822;50.124;8.678;2023-02-17T13:30:04;5.88;;;1.90;;
24715;SDS011;12822;50.124;8.678;2023-02-17T13:32:33;2.38;;;1.40;;
24715;SDS011;12822;50.124;8.678;2023-02-17T13:35:02;2.45;;;1.45;;
24715;SDS011;12822;50.124;8.678;2023-02-17T13:40:01;6.00;;;1.77;;
24715;SDS011;12822;50.124;8.678;2023-02-17T13:42:40;6.20;;;1.60;;
24715;SDS011;12822;50.124;8.678;2023-02-17T13:45:27;4.25;;;1.52;;
24715;SDS011;12822;50.124;8.678;2023-02-17T13:47:55;5.38;;;1.60;;
24715;SDS011;12822;50.124;8.678;2023-02-17T13:52:52;5.90;;;1.60;;
24715;SDS011;12822;50.124;8.678;2023-02-17T13:55:18;4.20;;;1.63;;
24715;SDS011;12822;50.124;8.678;2023-02-17T13:57:44;2.35;;;1.45;;
24715;SDS011;12822;50.124;8.678;2023-02-17T14:02:47;7.63;;;2.20;;
24715;SDS011;12822;50.124;8.678;2023-02-17T14:07:42;6.38;;;1.73;;
24715;SDS011;12822;50.124;8.678;2023-02-17T14:10:29;3.80;;;1.60;;
24715;SDS011;12822;50.124;8.678;2023-02-17T14:12:55;6.35;;;1.85;;
24715;SDS011;12822;50.124;8.678;2023-02-17T14:15:23;1.63;;;1.42;;
24715;SDS011;12822;50.124;8.678;2023-02-17T14:17:49;3.50;;;1.60;;
24715;SDS011;12822;50.124;8.678;2023-02-17T14:20:32;4.45;;;1.85;;
24715;SDS011;12822;50.124;8.678;2023-02-17T14:22:59;2.35;;;1.83;;
24715;SDS011;12822;50.124;8.678;2023-02-17T14:25:30;4.57;;;2.10;;
24715;SDS011;12822;50.124;8.678;2023-02-17T14:27:57;3.67;;;1.70;;
24715;SDS011;12822;50.124;8.678;2023-02-17T14:35:27;3.00;;;1.83;;
24715;SDS011;12822;50.124;8.678;2023-02-17T14:37:53;3.35;;;1.70;;
24715;SDS011;12822;50.124;8.678;2023-02-17T14:40:20;5.40;;;2.17;;
24715;SDS011;12822;50.124;8.678;2023-02-17T14:42:49;2.85;;;2.03;;
24715;SDS011;12822;50.124;8.678;2023-02-17T14:45:16;4.03;;;1.60;;
24715;SDS011;12822;50.124;8.678;2023-02-17T14:47:43;3.75;;;1.83;;
24715;SDS011;12822;50.124;8.678;2023-02-17T14:50:12;3.03;;;1.65;;
24715;SDS011;12822;50.124;8.678;2023-02-17T14:52:49;2.63;;;1.70;;
24715;SDS011;12822;50.124;8.678;2023-02-17T14:55:28;3.15;;;1.95;;
24715;SDS011;12822;50.124;8.678;2023-02-17T14:57:56;3.75;;;2.40;;
24715;SDS011;12822;50.124;8.678;2023-02-17T15:00:22;2.85;;;1.90;;
24715;SDS011;12822;50.124;8.678;2023-02-17T15:02:48;3.40;;;2.35;;
24715;SDS011;12822;50.124;8.678;2023-02-17T15:05:15;2.67;;;1.80;;
24715;SDS011;12822;50.124;8.678;2023-02-17T15:07:41;3.00;;;1.92;;
24715;SDS011;12822;50.124;8.678;2023-02-17T15:10:40;3.50;;;2.10;;
24715;SDS011;12822;50.124;8.678;2023-02-17T15:13:02;2.95;;;2.20;;
24715;SDS011;12822;50.124;8.678;2023-02-17T15:15:28;4.50;;;2.05;;
24715;SDS011;12822;50.124;8.678;2023-02-17T15:17:54;2.03;;;1.83;;
24715;SDS011;12822;50.124;8.678;2023-02-17T15:20:20;2.92;;;1.85;;
24715;SDS011;12822;50.124;8.678;2023-02-17T15:22:46;2.60;;;2.03;;
24715;SDS011;12822;50.124;8.678;2023-02-17T15:25:17;2.20;;;1.77;;
24715;SDS011;12822;50.124;8.678;2023-02-17T15:27:43;2.80;;;2.00;;
24715;SDS011;12822;50.124;8.678;2023-02-17T15:30:14;4.88;;;2.00;;
24715;SDS011;12822;50.124;8.678;2023-02-17T15:32:40;4.18;;;2.45;;
24715;SDS011;12822;50.124;8.678;2023-02-17T15:35:25;3.30;;;1.60;;
24715;SDS011;12822;50.124;8.678;2023-02-17T15:37:52;4.25;;;2.28;;
24715;SDS011;12822;50.124;8.678;2023-02-17T15:40:22;5.15;;;1.90;;
24715;SDS011;12822;50.124;8.678;2023-02-17T15:42:49;2.72;;;1.58;;
24715;SDS011;12822;50.124;8.678;2023-02-17T15:45:18;2.42;;;1.52;;
24715;SDS011;12822;50.124;8.678;2023-02-17T15:47:47;2.35;;;1.88;;
24715;SDS011;12822;50.124;8.678;2023-02-17T15:50:16;1.73;;;1.60;;
24715;SDS011;12822;50.124;8.678;2023-02-17T15:52:44;2.00;;;1.45;;
24715;SDS011;12822;50.124;8.678;2023-02-17T15:55:11;2.17;;;1.50;;
24715;SDS011;12822;50.124;8.678;2023-02-17T15:57:38;1.70;;;1.45;;
24715;SDS011;12822;50.124;8.678;2023-02-17T16:00:10;3.58;;;1.30;;
24715;SDS011;12822;50.124;8.678;2023-02-17T16:02:40;3.00;;;1.42;;
24715;SDS011;12822;50.124;8.678;2023-02-17T16:05:08;3.22;;;1.45;;
24715;SDS011;12822;50.124;8.678;2023-02-17T16:07:34;1.92;;;1.10;;
24715;SDS011;12822;50.124;8.678;2023-02-17T16:10:01;5.88;;;1.45;;
24715;SDS011;12822;50.124;8.678;2023-02-17T16:12:27;1.63;;;1.35;;
24715;SDS011;12822;50.124;8.678;2023-02-17T16:14:53;3.00;;;1.20;;
24715;SDS011;12822;50.124;8.678;2023-02-17T16:17:19;2.95;;;1.10;;
24715;SDS011;12822;50.124;8.678;2023-02-17T16:19:45;2.58;;;1.42;;
24715;SDS011;12822;50.124;8.678;2023-02-17T16:22:11;2.58;;;1.10;;
24715;SDS011;12822;50.124;8.678;2023-02-17T16:24:38;1.35;;;1.05;;
24715;SDS011;12822;50.124;8.678;2023-02-17T16:27:05;1.70;;;1.35;;
24715;SDS011;12822;50.124;8.678;2023-02-17T16:29:33;2.35;;;1.20;;
24715;SDS011;12822;50.124;8.678;2023-02-17T16:31:59;1.80;;;1.27;;
24715;SDS011;12822;50.124;8.678;2023-02-17T16:34:25;1.98;;;1.30;;
24715;SDS011;12822;50.124;8.678;2023-02-17T16:36:56;1.40;;;1.08;;